sensor_id;sensor_type;location;lat;lon;timestamp;pressure;altitude;pressure_sealevel;temperature;humidity
54554;BME280;40450;55.848;-3.572;2023-10-09T00:00:13;99635.98;;;18.45;54.92
54554;BME280;40450;55.848;-3.572;2023-10-09T00:02:38;99632.96;;;18.92;55.29
54554;BME280;40450;55.848;-3.572;2023-10-09T00:05:04;99639.33;;;19.04;55.14
54554;BME280;40450;55.848;-3.572;2023-10-09T00:07:28;99638.89;;;19.32;54.92
54554;BME280;40450;55.848;-3.572;2023-10-09T00:09:53;99637.81;;;19.32;54.45
54554;BME280;40450;55.848;-3.572;2023-10-09T00:12:19;99637.62;;;19.32;54.20
54554;BME280;40450;55.848;-3.572;2023-10-09T00:14:43;99637.76;;;19.42;54.32
54554;BME280;40450;55.848;-3.572;2023-10-09T00:17:08;99640.73;;;19.23;54.04
54554;BME280;40450;55.848;-3.572;2023-10-09T00:19:33;99641.38;;;19.09;53.99
54554;BME280;40450;55.848;-3.572;2023-10-09T00:21:59;99636.05;;;18.93;54.72
54554;BME280;40450;55.848;-3.572;2023-10-09T00:24:24;99638.35;;;18.60;54.56
54554;BME280;40450;55.848;-3.572;2023-10-09T00:26:49;99637.49;;;19.07;54.86
54554;BME280;40450;55.848;-3.572;2023-10-09T00:29:14;99635.53;;;19.23;54.12
54554;BME280;40450;55.848;-3.572;2023-10-09T00:31:39;99633.08;;;18.52;54.72
54554;BME280;40450;55.848;-3.572;2023-10-09T00:34:04;99627.47;;;18.98;55.02
54554;BME280;40450;55.848;-3.572;2023-10-09T00:36:29;99633.95;;;19.03;54.58
54554;BME280;40450;55.848;-3.572;2023-10-09T00:38:55;99636.10;;;18.11;54.71
54554;BME280;40450;55.848;-3.572;2023-10-09T00:41:19;99643.15;;;18.48;55.48
54554;BME280;40450;55.848;-3.572;2023-10-09T00:43:44;99649.49;;;18.33;56.03
54554;BME280;40450;55.848;-3.572;2023-10-09T00:46:10;99658.14;;;18.90;56.18
54554;BME280;40450;55.848;-3.572;2023-10-09T00:48:35;99662.39;;;18.34;56.07
54554;BME280;40450;55.848;-3.572;2023-10-09T00:51:00;99661.07;;;18.20;56.32
54554;BME280;40450;55.848;-3.572;2023-10-09T00:53:25;99664.40;;;17.88;57.11
54554;BME280;40450;55.848;-3.572;2023-10-09T00:55:50;99656.95;;;18.90;56.89
54554;BME280;40450;55.848;-3.572;2023-10-09T00:58:16;99659.00;;;18.81;56.64
54554;BME280;40450;55.848;-3.572;2023-10-09T01:00:41;99653.58;;;18.55;55.99
54554;BME280;40450;55.848;-3.572;2023-10-09T01:03:05;99644.05;;;18.76;56.26
54554;BME280;40450;55.848;-3.572;2023-10-09T01:05:30;99642.55;;;19.09;55.43
54554;BME280;40450;55.848;-3.572;2023-10-09T01:07:55;99641.73;;;18.55;55.37
54554;BME280;40450;55.848;-3.572;2023-10-09T01:10:21;99635.97;;;19.26;55.68
54554;BME280;40450;55.848;-3.572;2023-10-09T01:12:46;99643.12;;;18.98;55.23
54554;BME280;40450;55.848;-3.572;2023-10-09T01:15:14;99654.96;;;18.71;54.93
54554;BME280;40450;55.848;-3.572;2023-10-09T01:17:36;99658.22;;;18.77;55.21
54554;BME280;40450;55.848;-3.572;2023-10-09T01:20:01;99658.37;;;18.05;55.42
54554;BME280;40450;55.848;-3.572;2023-10-09T01:22:26;99662.08;;;18.87;55.91
54554;BME280;40450;55.848;-3.572;2023-10-09T01:24:51;99659.72;;;19.25;55.60
54554;BME280;40450;55.848;-3.572;2023-10-09T01:27:16;99656.46;;;19.04;54.86
54554;BME280;40450;55.848;-3.572;2023-10-09T01:29:42;99659.71;;;18.25;54.82
54554;BME280;40450;55.848;-3.572;2023-10-09T01:32:07;99657.69;;;18.43;54.79
54554;BME280;40450;55.848;-3.572;2023-10-09T01:34:33;99654.20;;;18.42;55.66
54554;BME280;40450;55.848;-3.572;2023-10-09T01:36:57;99657.01;;;18.50;55.46
54554;BME280;40450;55.848;-3.572;2023-10-09T01:39:23;99652.19;;;18.07;55.23
54554;BME280;40450;55.848;-3.572;2023-10-09T01:41:47;99658.15;;;18.23;55.71
54554;BME280;40450;55.848;-3.572;2023-10-09T01:44:12;99661.34;;;19.10;55.02
54554;BME280;40450;55.848;-3.572;2023-10-09T01:46:37;99665.67;;;17.90;55.43
54554;BME280;40450;55.848;-3.572;2023-10-09T01:49:02;99663.71;;;18.99;55.70
54554;BME280;40450;55.848;-3.572;2023-10-09T01:51:27;99662.04;;;17.66;56.04
54554;BME280;40450;55.848;-3.572;2023-10-09T01:53:53;99654.26;;;17.83;56.37
54554;BME280;40450;55.848;-3.572;2023-10-09T01:56:18;99658.61;;;17.55;56.78
54554;BME280;40450;55.848;-3.572;2023-10-09T01:58:43;99657.64;;;17.60;56.47
54554;BME280;40450;55.848;-3.572;2023-10-09T02:01:08;99658.39;;;18.04;57.73
54554;BME280;40450;55.848;-3.572;2023-10-09T02:03:33;99648.08;;;17.00;57.95
54554;BME280;40450;55.848;-3.572;2023-10-09T02:05:58;99641.47;;;18.02;57.84
54554;BME280;40450;55.848;-3.572;2023-10-09T02:08:23;99632.48;;;17.94;57.71
54554;BME280;40450;55.848;-3.572;2023-10-09T02:10:49;99630.40;;;17.96;57.18
54554;BME280;40450;55.848;-3.572;2023-10-09T02:13:14;99639.43;;;18.23;57.72
54554;BME280;40450;55.848;-3.572;2023-10-09T02:15:40;99639.32;;;18.32;56.85
54554;BME280;40450;55.848;-3.572;2023-10-09T02:18:04;99637.81;;;18.47;56.02
54554;BME280;40450;55.848;-3.572;2023-10-09T02:20:29;99642.75;;;18.24;56.29
54554;BME280;40450;55.848;-3.572;2023-10-09T02:22:54;99640.02;;;18.57;56.08
54554;BME280;40450;55.848;-3.572;2023-10-09T02:25:20;99637.90;;;18.00;55.75
54554;BME280;40450;55.848;-3.572;2023-10-09T02:27:45;99638.85;;;17.73;56.38
54554;BME280;40450;55.848;-3.572;2023-10-09T02:30:10;99629.62;;;17.38;56.81
54554;BME280;40450;55.848;-3.572;2023-10-09T02:32:35;99630.54;;;17.62;56.78
54554;BME280;40450;55.848;-3.572;2023-10-09T02:35:01;99634.28;;;18.41;56.46
54554;BME280;40450;55.848;-3.572;2023-10-09T02:37:27;99631.22;;;17.79;55.74
54554;BME280;40450;55.848;-3.572;2023-10-09T02:39:50;99635.60;;;18.41;55.38
54554;BME280;40450;55.848;-3.572;2023-10-09T02:42:16;99627.63;;;19.39;54.84
54554;BME280;40450;55.848;-3.572;2023-10-09T02:44:41;99626.30;;;18.91;54.26
54554;BME280;40450;55.848;-3.572;2023-10-09T02:47:06;99631.22;;;19.25;53.71
54554;BME280;40450;55.848;-3.572;2023-10-09T02:49:31;99633.97;;;19.11;53.23
54554;BME280;40450;55.848;-3.572;2023-10-09T02:51:56;99640.03;;;18.68;53.93
54554;BME280;40450;55.848;-3.572;2023-10-09T02:54:21;99643.91;;;17.85;54.56
54554;BME280;40450;55.848;-3.572;2023-10-09T02:56:47;99641.94;;;18.26;54.73
54554;BME280;40450;55.848;-3.572;2023-10-09T02:59:11;99639.56;;;17.77;55.59
54554;BME280;40450;55.848;-3.572;2023-10-09T03:01:40;99629.70;;;17.97;56.14
54554;BME280;40450;55.848;-3.572;2023-10-09T03:04:02;99628.39;;;18.22;56.07
54554;BME280;40450;55.848;-3.572;2023-10-09T03:06:27;99624.26;;;18.41;55.52
54554;BME280;40450;55.848;-3.572;2023-10-09T03:08:52;99616.54;;;18.31;55.43
54554;BME280;40450;55.848;-3.572;2023-10-09T03:11:17;99615.68;;;17.72;55.74
54554;BME280;40450;55.848;-3.572;2023-10-09T03:13:42;99617.93;;;18.29;55.71
54554;BME280;40450;55.848;-3.572;2023-10-09T03:16:07;99627.98;;;18.19;55.15
54554;BME280;40450;55.848;-3.572;2023-10-09T03:18:32;99630.33;;;18.10;55.30
54554;BME280;40450;55.848;-3.572;2023-10-09T03:20:58;99623.57;;;18.29;56.10
54554;BME280;40450;55.848;-3.572;2023-10-09T03:23:23;99616.54;;;18.40;55.91
54554;BME280;40450;55.848;-3.572;2023-10-09T03:25:48;99630.61;;;18.24;55.39
54554;BME280;40450;55.848;-3.572;2023-10-09T03:28:13;99633.14;;;18.48;55.28
54554;BME280;40450;55.848;-3.572;2023-10-09T03:30:39;99637.89;;;18.28;55.10
54554;BME280;40450;55.848;-3.572;2023-10-09T03:33:04;99634.01;;;18.72;54.82
54554;BME280;40450;55.848;-3.572;2023-10-09T03:35:29;99632.82;;;18.55;54.19
54554;BME280;40450;55.848;-3.572;2023-10-09T03:37:56;99638.22;;;18.84;54.56
54554;BME280;40450;55.848;-3.572;2023-10-09T03:40:21;99636.51;;;18.82;54.69
54554;BME280;40450;55.848;-3.572;2023-10-09T03:42:44;99629.05;;;19.33;54.09
54554;BME280;40450;55.848;-3.572;2023-10-09T03:45:10;99624.65;;;18.87;53.11
54554;BME280;40450;55.848;-3.572;2023-10-09T03:47:35;99627.57;;;18.81;53.50
54554;BME280;40450;55.848;-3.572;2023-10-09T03:50:00;99629.25;;;18.75;53.53
54554;BME280;40450;55.848;-3.572;2023-10-09T03:52:25;99627.15;;;19.34;53.01
54554;BME280;40450;55.848;-3.572;2023-10-09T03:54:50;99625.39;;;18.23;53.31
54554;BME280;40450;55.848;-3.572;2023-10-09T03:57:15;99622.49;;;19.07;53.53
54554;BME280;40450;55.848;-3.572;2023-10-09T03:59:40;99625.54;;;18.43;53.89
54554;BME280;40450;55.848;-3.572;2023-10-09T04:02:05;99629.62;;;18.41;53.72
54554;BME280;40450;55.848;-3.572;2023-10-09T04:04:31;99622.76;;;18.05;54.00
54554;BME280;40450;55.848;-3.572;2023-10-09T04:06:55;99630.35;;;18.12;54.27
54554;BME280;40450;55.848;-3.572;2023-10-09T04:09:21;99636.31;;;18.04;54.32
54554;BME280;40450;55.848;-3.572;2023-10-09T04:11:46;99651.17;;;17.97;54.33
54554;BME280;40450;55.848;-3.572;2023-10-09T04:14:11;99659.63;;;18.57;54.31
54554;BME280;40450;55.848;-3.572;2023-10-09T04:16:36;99659.17;;;18.48;53.42
54554;BME280;40450;55.848;-3.572;2023-10-09T04:19:01;99654.66;;;19.13;52.92
54554;BME280;40450;55.848;-3.572;2023-10-09T04:21:26;99656.13;;;19.05;52.77
54554;BME280;40450;55.848;-3.572;2023-10-09T04:23:51;99659.29;;;18.75;52.64
54554;BME280;40450;55.848;-3.572;2023-10-09T04:26:17;99668.69;;;18.44;52.60
54554;BME280;40450;55.848;-3.572;2023-10-09T04:28:42;99677.35;;;18.92;53.44
54554;BME280;40450;55.848;-3.572;2023-10-09T04:31:07;99685.97;;;19.21;53.18
54554;BME280;40450;55.848;-3.572;2023-10-09T04:33:32;99691.05;;;18.41;52.83
54554;BME280;40450;55.848;-3.572;2023-10-09T04:36:01;99694.16;;;18.90;52.81
54554;BME280;40450;55.848;-3.572;2023-10-09T04:38:22;99692.90;;;18.70;52.61
54554;BME280;40450;55.848;-3.572;2023-10-09T04:40:47;99686.98;;;18.80;53.30
54554;BME280;40450;55.848;-3.572;2023-10-09T04:43:12;99692.36;;;18.76;52.96
54554;BME280;40450;55.848;-3.572;2023-10-09T04:45:37;99697.13;;;18.58;52.57
54554;BME280;40450;55.848;-3.572;2023-10-09T04:48:03;99706.89;;;18.92;52.46
54554;BME280;40450;55.848;-3.572;2023-10-09T04:50:28;99711.98;;;18.97;52.37
54554;BME280;40450;55.848;-3.572;2023-10-09T04:52:54;99714.49;;;19.09;52.22
54554;BME280;40450;55.848;-3.572;2023-10-09T04:55:19;99711.99;;;18.71;52.20
54554;BME280;40450;55.848;-3.572;2023-10-09T04:57:44;99711.68;;;19.16;52.40
54554;BME280;40450;55.848;-3.572;2023-10-09T05:00:10;99707.79;;;18.96;51.91
54554;BME280;40450;55.848;-3.572;2023-10-09T05:02:33;99706.21;;;19.10;52.10
54554;BME280;40450;55.848;-3.572;2023-10-09T05:04:58;99704.17;;;18.77;51.68
54554;BME280;40450;55.848;-3.572;2023-10-09T05:07:23;99709.68;;;18.41;52.27
54554;BME280;40450;55.848;-3.572;2023-10-09T05:09:49;99713.20;;;17.76;52.90
54554;BME280;40450;55.848;-3.572;2023-10-09T05:12:14;99717.59;;;18.37;52.94
54554;BME280;40450;55.848;-3.572;2023-10-09T05:14:39;99718.63;;;18.88;52.76
54554;BME280;40450;55.848;-3.572;2023-10-09T05:17:05;99722.50;;;18.16;52.45
54554;BME280;40450;55.848;-3.572;2023-10-09T05:19:29;99732.48;;;17.65;53.65
54554;BME280;40450;55.848;-3.572;2023-10-09T05:21:54;99735.51;;;18.41;53.73
54554;BME280;40450;55.848;-3.572;2023-10-09T05:24:19;99748.89;;;17.42;54.16
54554;BME280;40450;55.848;-3.572;2023-10-09T05:26:46;99749.45;;;17.86;54.11
54554;BME280;40450;55.848;-3.572;2023-10-09T05:29:10;99749.83;;;18.33;54.20
54554;BME280;40450;55.848;-3.572;2023-10-09T05:31:35;99758.54;;;18.14;53.84
54554;BME280;40450;55.848;-3.572;2023-10-09T05:34:00;99761.76;;;17.87;53.94
54554;BME280;40450;55.848;-3.572;2023-10-09T05:36:25;99760.97;;;17.57;54.20
54554;BME280;40450;55.848;-3.572;2023-10-09T05:38:51;99751.44;;;17.63;55.48
54554;BME280;40450;55.848;-3.572;2023-10-09T05:41:15;99752.16;;;17.94;54.55
54554;BME280;40450;55.848;-3.572;2023-10-09T05:43:40;99755.97;;;17.58;55.32
54554;BME280;40450;55.848;-3.572;2023-10-09T05:46:06;99759.38;;;17.62;55.12
54554;BME280;40450;55.848;-3.572;2023-10-09T05:48:30;99751.82;;;17.65;54.84
54554;BME280;40450;55.848;-3.572;2023-10-09T05:50:56;99753.09;;;18.21;54.99
54554;BME280;40450;55.848;-3.572;2023-10-09T05:53:21;99750.75;;;18.35;54.40
54554;BME280;40450;55.848;-3.572;2023-10-09T05:55:46;99751.85;;;17.53;53.97
54554;BME280;40450;55.848;-3.572;2023-10-09T05:58:11;99747.00;;;18.25;53.84
54554;BME280;40450;55.848;-3.572;2023-10-09T06:00:37;99749.15;;;17.88;54.12
54554;BME280;40450;55.848;-3.572;2023-10-09T06:03:02;99746.03;;;18.15;53.49
54554;BME280;40450;55.848;-3.572;2023-10-09T06:05:29;99744.13;;;18.28;53.68
54554;BME280;40450;55.848;-3.572;2023-10-09T06:07:52;99745.83;;;18.46;53.51
54554;BME280;40450;55.848;-3.572;2023-10-09T06:10:17;99747.42;;;18.92;52.81
54554;BME280;40450;55.848;-3.572;2023-10-09T06:12:42;99748.12;;;18.87;52.77
54554;BME280;40450;55.848;-3.572;2023-10-09T06:15:08;99744.25;;;18.63;52.98
54554;BME280;40450;55.848;-3.572;2023-10-09T06:17:33;99743.87;;;18.49;52.50
54554;BME280;40450;55.848;-3.572;2023-10-09T06:19:58;99749.46;;;18.96;52.44
54554;BME280;40450;55.848;-3.572;2023-10-09T06:22:23;99756.18;;;18.40;52.22
54554;BME280;40450;55.848;-3.572;2023-10-09T06:24:48;99761.05;;;17.84;52.69
54554;BME280;40450;55.848;-3.572;2023-10-09T06:27:13;99761.11;;;18.20;52.72
54554;BME280;40450;55.848;-3.572;2023-10-09T06:29:39;99765.62;;;17.75;52.69
54554;BME280;40450;55.848;-3.572;2023-10-09T06:32:05;99761.07;;;18.10;52.75
54554;BME280;40450;55.848;-3.572;2023-10-09T06:34:28;99765.59;;;18.24;53.03
54554;BME280;40450;55.848;-3.572;2023-10-09T06:36:53;99767.90;;;18.73;52.40
54554;BME280;40450;55.848;-3.572;2023-10-09T06:39:19;99774.13;;;18.34;52.09
54554;BME280;40450;55.848;-3.572;2023-10-09T06:41:44;99772.53;;;18.56;52.11
54554;BME280;40450;55.848;-3.572;2023-10-09T06:44:09;99772.15;;;18.80;52.58
54554;BME280;40450;55.848;-3.572;2023-10-09T06:46:34;99776.36;;;19.06;51.68
54554;BME280;40450;55.848;-3.572;2023-10-09T06:48:59;99782.94;;;18.88;51.47
54554;BME280;40450;55.848;-3.572;2023-10-09T06:51:24;99786.11;;;18.73;51.77
54554;BME280;40450;55.848;-3.572;2023-10-09T06:53:49;99784.18;;;18.99;51.39
54554;BME280;40450;55.848;-3.572;2023-10-09T06:56:14;99783.98;;;18.88;50.99
54554;BME280;40450;55.848;-3.572;2023-10-09T06:58:40;99789.41;;;18.86;50.46
54554;BME280;40450;55.848;-3.572;2023-10-09T07:01:05;99794.79;;;18.51;50.83
54554;BME280;40450;55.848;-3.572;2023-10-09T07:03:30;99788.98;;;18.20;50.73
54554;BME280;40450;55.848;-3.572;2023-10-09T07:06:04;99791.46;;;18.73;51.14
54554;BME280;40450;55.848;-3.572;2023-10-09T07:08:20;99790.57;;;19.03;50.71
54554;BME280;40450;55.848;-3.572;2023-10-09T07:10:45;99786.15;;;18.37;50.34
54554;BME280;40450;55.848;-3.572;2023-10-09T07:13:10;99790.64;;;19.03;50.71
54554;BME280;40450;55.848;-3.572;2023-10-09T07:15:35;99786.13;;;18.76;50.67
54554;BME280;40450;55.848;-3.572;2023-10-09T07:18:00;99785.37;;;19.29;50.86
54554;BME280;40450;55.848;-3.572;2023-10-09T07:20:26;99782.46;;;19.07;50.36
54554;BME280;40450;55.848;-3.572;2023-10-09T07:22:51;99778.21;;;19.06;50.18
54554;BME280;40450;55.848;-3.572;2023-10-09T07:25:16;99778.16;;;19.03;49.88
54554;BME280;40450;55.848;-3.572;2023-10-09T07:27:41;99779.17;;;18.78;50.09
54554;BME280;40450;55.848;-3.572;2023-10-09T07:30:07;99777.47;;;18.95;50.19
54554;BME280;40450;55.848;-3.572;2023-10-09T07:32:31;99778.20;;;19.05;49.70
54554;BME280;40450;55.848;-3.572;2023-10-09T07:34:56;99766.82;;;18.73;49.68
54554;BME280;40450;55.848;-3.572;2023-10-09T07:37:23;99771.11;;;18.98;50.10
54554;BME280;40450;55.848;-3.572;2023-10-09T07:39:46;99769.99;;;18.79;50.07
54554;BME280;40450;55.848;-3.572;2023-10-09T07:42:12;99772.23;;;18.85;50.23
54554;BME280;40450;55.848;-3.572;2023-10-09T07:44:37;99772.49;;;18.25;50.70
54554;BME280;40450;55.848;-3.572;2023-10-09T07:47:02;99772.21;;;18.41;50.30
54554;BME280;40450;55.848;-3.572;2023-10-09T07:49:27;99772.22;;;18.63;51.11
54554;BME280;40450;55.848;-3.572;2023-10-09T07:51:52;99775.56;;;18.64;51.44
54554;BME280;40450;55.848;-3.572;2023-10-09T07:54:17;99778.06;;;18.89;50.89
54554;BME280;40450;55.848;-3.572;2023-10-09T07:56:43;99781.43;;;18.75;50.98
54554;BME280;40450;55.848;-3.572;2023-10-09T07:59:08;99785.83;;;18.57;50.85
54554;BME280;40450;55.848;-3.572;2023-10-09T08:01:32;99782.98;;;18.81;50.70
54554;BME280;40450;55.848;-3.572;2023-10-09T08:03:58;99785.00;;;18.76;51.11
54554;BME280;40450;55.848;-3.572;2023-10-09T08:06:24;99784.79;;;17.97;51.05
54554;BME280;40450;55.848;-3.572;2023-10-09T08:08:48;99782.52;;;18.38;51.01
54554;BME280;40450;55.848;-3.572;2023-10-09T08:11:13;99785.88;;;18.68;51.34
54554;BME280;40450;55.848;-3.572;2023-10-09T08:13:38;99792.98;;;17.83;51.19
54554;BME280;40450;55.848;-3.572;2023-10-09T08:16:03;99798.08;;;18.41;51.36
54554;BME280;40450;55.848;-3.572;2023-10-09T08:18:28;99797.70;;;18.49;51.80
54554;BME280;40450;55.848;-3.572;2023-10-09T08:20:54;99802.67;;;18.71;51.69
54554;BME280;40450;55.848;-3.572;2023-10-09T08:23:18;99804.66;;;18.65;51.53
54554;BME280;40450;55.848;-3.572;2023-10-09T08:25:44;99813.80;;;18.51;51.45
54554;BME280;40450;55.848;-3.572;2023-10-09T08:28:09;99815.70;;;18.27;52.29
54554;BME280;40450;55.848;-3.572;2023-10-09T08:30:34;99812.79;;;17.89;52.05
54554;BME280;40450;55.848;-3.572;2023-10-09T08:32:59;99810.27;;;18.51;52.07
54554;BME280;40450;55.848;-3.572;2023-10-09T08:35:24;99813.48;;;18.67;52.15
54554;BME280;40450;55.848;-3.572;2023-10-09T08:37:49;99818.27;;;18.89;51.66
54554;BME280;40450;55.848;-3.572;2023-10-09T08:40:15;99819.86;;;18.38;51.10
54554;BME280;40450;55.848;-3.572;2023-10-09T08:42:43;99821.74;;;18.43;51.56
54554;BME280;40450;55.848;-3.572;2023-10-09T08:45:06;99831.67;;;17.82;51.41
54554;BME280;40450;55.848;-3.572;2023-10-09T08:47:30;99832.61;;;18.12;51.74
54554;BME280;40450;55.848;-3.572;2023-10-09T08:49:56;99831.90;;;18.26;51.62
54554;BME280;40450;55.848;-3.572;2023-10-09T08:52:20;99825.07;;;18.60;51.92
54554;BME280;40450;55.848;-3.572;2023-10-09T08:54:45;99832.38;;;18.31;51.74
54554;BME280;40450;55.848;-3.572;2023-10-09T08:57:10;99837.58;;;18.28;51.92
54554;BME280;40450;55.848;-3.572;2023-10-09T08:59:40;99835.18;;;18.55;52.05
54554;BME280;40450;55.848;-3.572;2023-10-09T09:02:00;99839.76;;;18.51;51.87
54554;BME280;40450;55.848;-3.572;2023-10-09T09:04:36;99840.39;;;17.42;53.18
54554;BME280;40450;55.848;-3.572;2023-10-09T09:06:51;99841.91;;;17.63;53.49
54554;BME280;40450;55.848;-3.572;2023-10-09T09:09:16;99840.40;;;17.11;53.93
54554;BME280;40450;55.848;-3.572;2023-10-09T09:11:41;99839.32;;;17.28;54.27
54554;BME280;40450;55.848;-3.572;2023-10-09T09:14:06;99837.90;;;17.69;53.68
54554;BME280;40450;55.848;-3.572;2023-10-09T09:16:33;99840.27;;;18.19;53.57
54554;BME280;40450;55.848;-3.572;2023-10-09T09:18:58;99835.68;;;17.58;53.83
54554;BME280;40450;55.848;-3.572;2023-10-09T09:21:21;99833.70;;;17.99;54.58
54554;BME280;40450;55.848;-3.572;2023-10-09T09:23:55;99830.11;;;18.36;54.26
54554;BME280;40450;55.848;-3.572;2023-10-09T09:26:12;99831.96;;;18.51;53.54
54554;BME280;40450;55.848;-3.572;2023-10-09T09:31:07;99828.43;;;18.56;53.22
54554;BME280;40450;55.848;-3.572;2023-10-09T09:33:27;99821.90;;;18.87;52.92
54554;BME280;40450;55.848;-3.572;2023-10-09T09:35:58;99819.11;;;18.88;52.97
54554;BME280;40450;55.848;-3.572;2023-10-09T09:38:17;99820.99;;;19.10;52.70
54554;BME280;40450;55.848;-3.572;2023-10-09T09:40:42;99813.27;;;19.07;52.27
54554;BME280;40450;55.848;-3.572;2023-10-09T09:43:08;99811.35;;;19.35;51.81
54554;BME280;40450;55.848;-3.572;2023-10-09T09:45:33;99816.49;;;18.67;51.47
54554;BME280;40450;55.848;-3.572;2023-10-09T09:48:00;99822.71;;;19.55;51.46
54554;BME280;40450;55.848;-3.572;2023-10-09T09:50:23;99826.08;;;19.10;50.75
54554;BME280;40450;55.848;-3.572;2023-10-09T09:52:48;99827.05;;;19.60;50.59
54554;BME280;40450;55.848;-3.572;2023-10-09T09:55:13;99831.79;;;19.74;50.26
54554;BME280;40450;55.848;-3.572;2023-10-09T09:57:39;99826.21;;;18.64;50.50
54554;BME280;40450;55.848;-3.572;2023-10-09T10:00:04;99820.79;;;18.47;50.98
54554;BME280;40450;55.848;-3.572;2023-10-09T10:02:32;99813.83;;;18.67;50.89
54554;BME280;40450;55.848;-3.572;2023-10-09T10:04:56;99811.90;;;18.43;50.82
54554;BME280;40450;55.848;-3.572;2023-10-09T10:07:19;99815.92;;;18.55;50.75
54554;BME280;40450;55.848;-3.572;2023-10-09T10:09:43;99815.79;;;18.06;50.36
54554;BME280;40450;55.848;-3.572;2023-10-09T10:12:09;99824.38;;;17.99;51.29
54554;BME280;40450;55.848;-3.572;2023-10-09T10:17:01;99842.67;;;17.70;51.11
54554;BME280;40450;55.848;-3.572;2023-10-09T10:19:24;99834.21;;;18.41;50.96
54554;BME280;40450;55.848;-3.572;2023-10-09T10:21:49;99832.24;;;18.92;50.43
54554;BME280;40450;55.848;-3.572;2023-10-09T10:26:39;99835.65;;;18.82;50.90
54554;BME280;40450;55.848;-3.572;2023-10-09T10:29:15;99837.06;;;18.54;51.03
54554;BME280;40450;55.848;-3.572;2023-10-09T10:34:04;99817.46;;;18.35;51.39
54554;BME280;40450;55.848;-3.572;2023-10-09T10:36:20;99807.09;;;18.43;51.11
54554;BME280;40450;55.848;-3.572;2023-10-09T10:38:45;99813.73;;;18.00;50.93
54554;BME280;40450;55.848;-3.572;2023-10-09T10:41:12;99800.32;;;18.55;50.96
54554;BME280;40450;55.848;-3.572;2023-10-09T10:43:35;99811.31;;;18.59;50.82
54554;BME280;40450;55.848;-3.572;2023-10-09T10:46:02;99823.26;;;19.15;49.86
54554;BME280;40450;55.848;-3.572;2023-10-09T10:48:25;99830.91;;;18.30;50.20
54554;BME280;40450;55.848;-3.572;2023-10-09T10:50:56;99836.01;;;17.75;50.46
54554;BME280;40450;55.848;-3.572;2023-10-09T10:53:15;99835.41;;;18.21;50.83
54554;BME280;40450;55.848;-3.572;2023-10-09T10:55:54;99829.80;;;17.38;51.03
54554;BME280;40450;55.848;-3.572;2023-10-09T10:58:15;99828.89;;;18.41;51.30
54554;BME280;40450;55.848;-3.572;2023-10-09T11:00:31;99823.86;;;18.47;50.91
54554;BME280;40450;55.848;-3.572;2023-10-09T11:02:56;99822.03;;;18.68;50.34
54554;BME280;40450;55.848;-3.572;2023-10-09T11:05:25;99831.87;;;17.72;50.46
54554;BME280;40450;55.848;-3.572;2023-10-09T11:07:46;99827.47;;;18.29;50.68
54554;BME280;40450;55.848;-3.572;2023-10-09T11:10:11;99826.96;;;18.13;50.78
54554;BME280;40450;55.848;-3.572;2023-10-09T11:12:44;99823.82;;;18.41;50.81
54554;BME280;40450;55.848;-3.572;2023-10-09T11:15:01;99819.19;;;18.66;50.70
54554;BME280;40450;55.848;-3.572;2023-10-09T11:17:26;99811.04;;;18.34;50.58
54554;BME280;40450;55.848;-3.572;2023-10-09T11:19:52;99798.67;;;18.84;49.92
54554;BME280;40450;55.848;-3.572;2023-10-09T11:22:17;99792.17;;;18.66;49.73
54554;BME280;40450;55.848;-3.572;2023-10-09T11:24:42;99800.25;;;18.88;49.91
54554;BME280;40450;55.848;-3.572;2023-10-09T11:27:08;99813.84;;;18.93;49.45
54554;BME280;40450;55.848;-3.572;2023-10-09T11:29:32;99818.96;;;19.05;49.77
54554;BME280;40450;55.848;-3.572;2023-10-09T11:31:58;99816.89;;;19.25;49.27
54554;BME280;40450;55.848;-3.572;2023-10-09T11:34:22;99820.58;;;19.23;48.76
54554;BME280;40450;55.848;-3.572;2023-10-09T11:36:47;99826.30;;;19.11;48.57
54554;BME280;40450;55.848;-3.572;2023-10-09T11:41:39;99827.64;;;18.10;49.54
54554;BME280;40450;55.848;-3.572;2023-10-09T11:44:03;99813.36;;;18.49;49.88
54554;BME280;40450;55.848;-3.572;2023-10-09T11:46:31;99805.94;;;18.71;49.16
54554;BME280;40450;55.848;-3.572;2023-10-09T11:49:03;99804.92;;;18.83;49.80
54554;BME280;40450;55.848;-3.572;2023-10-09T11:51:19;99801.19;;;19.20;49.35
54554;BME280;40450;55.848;-3.572;2023-10-09T11:53:43;99800.98;;;19.24;49.26
54554;BME280;40450;55.848;-3.572;2023-10-09T11:56:08;99802.85;;;18.69;48.53
54554;BME280;40450;55.848;-3.572;2023-10-09T11:58:33;99806.22;;;19.80;48.28
54554;BME280;40450;55.848;-3.572;2023-10-09T12:00:58;99808.35;;;19.61;48.07
54554;BME280;40450;55.848;-3.572;2023-10-09T12:03:24;99812.22;;;19.09;48.51
54554;BME280;40450;55.848;-3.572;2023-10-09T12:05:48;99813.21;;;19.43;47.90
54554;BME280;40450;55.848;-3.572;2023-10-09T12:08:13;99813.61;;;19.23;48.21
54554;BME280;40450;55.848;-3.572;2023-10-09T12:10:39;99806.12;;;19.86;48.03
54554;BME280;40450;55.848;-3.572;2023-10-09T12:13:05;99809.91;;;19.89;47.51
54554;BME280;40450;55.848;-3.572;2023-10-09T12:15:29;99810.75;;;20.11;47.20
54554;BME280;40450;55.848;-3.572;2023-10-09T12:17:54;99803.40;;;19.36;46.95
54554;BME280;40450;55.848;-3.572;2023-10-09T12:20:19;99803.10;;;19.96;47.27
54554;BME280;40450;55.848;-3.572;2023-10-09T12:22:44;99797.41;;;19.44;46.98
54554;BME280;40450;55.848;-3.572;2023-10-09T12:25:09;99792.96;;;20.40;46.88
54554;BME280;40450;55.848;-3.572;2023-10-09T12:27:34;99787.54;;;20.58;46.38
54554;BME280;40450;55.848;-3.572;2023-10-09T12:29:59;99780.27;;;20.83;46.84
54554;BME280;40450;55.848;-3.572;2023-10-09T12:32:24;99786.22;;;21.00;46.36
54554;BME280;40450;55.848;-3.572;2023-10-09T12:34:49;99783.63;;;20.91;45.73
54554;BME280;40450;55.848;-3.572;2023-10-09T12:37:14;99778.96;;;21.02;45.78
54554;BME280;40450;55.848;-3.572;2023-10-09T12:39:39;99768.19;;;20.86;45.35
54554;BME280;40450;55.848;-3.572;2023-10-09T12:42:05;99771.68;;;20.63;45.33
54554;BME280;40450;55.848;-3.572;2023-10-09T12:44:30;99777.96;;;19.70;45.19
54554;BME280;40450;55.848;-3.572;2023-10-09T12:46:55;99775.73;;;19.80;45.95
54554;BME280;40450;55.848;-3.572;2023-10-09T12:49:20;99771.66;;;20.20;46.20